createdAt,value
2022-11-12T00:02:05.312Z,93926.03
2022-11-12T00:04:34.775Z,93913.19
2022-11-12T00:07:04.560Z,93922.81
2022-11-12T00:09:34.016Z,93908.19
2022-11-12T00:12:03.310Z,93900.63
2022-11-12T00:14:32.736Z,93895.56
2022-11-12T00:17:03.535Z,93900.91
2022-11-12T00:19:32.887Z,93904.69
2022-11-12T00:22:02.158Z,93904.09
2022-11-12T00:24:31.478Z,93891.88
2022-11-12T00:27:00.788Z,93893.63
2022-11-12T00:29:30.101Z,93896.13
2022-11-12T00:31:59.478Z,93890.03
2022-11-12T00:34:30.269Z,93890.84
2022-11-12T00:36:59.684Z,93892.53
2022-11-12T00:39:32.117Z,93897.69
2022-11-12T00:42:01.623Z,93882.84
2022-11-12T00:44:31.173Z,93877.78
2022-11-12T00:47:00.463Z,93882.03
2022-11-12T00:51:12.588Z,93886.16
2022-11-12T00:53:41.899Z,93881.03
2022-11-12T00:56:11.906Z,93878.50
2022-11-12T00:58:41.289Z,93886.28
2022-11-12T01:01:13.390Z,93882.84
2022-11-12T01:03:44.167Z,93888.91
2022-11-12T01:06:18.602Z,93887.28
2022-11-12T01:08:48.443Z,93864.91
2022-11-12T01:11:20.938Z,93869.16
2022-11-12T01:13:56.885Z,93861.38
2022-11-12T01:16:34.048Z,93855.34
2022-11-12T01:19:05.390Z,93858.88
2022-11-12T01:21:40.267Z,93863.13
2022-11-12T01:24:10.728Z,93852.66
2022-11-12T01:26:41.817Z,93852.53
2022-11-12T01:29:11.346Z,93862.09
2022-11-12T01:31:41.224Z,93845.59
2022-11-12T01:34:11.768Z,93857.03
2022-11-12T01:36:43.838Z,93861.31
2022-11-12T01:39:13.312Z,93857.09
2022-11-12T01:41:43.960Z,93858.03
2022-11-12T01:44:18.319Z,93858.88
2022-11-12T01:47:04.593Z,93843.50
2022-11-12T01:49:41.073Z,93847.94
2022-11-12T01:52:19.907Z,93853.25
2022-11-12T01:54:53.447Z,93830.75
2022-11-12T01:57:33.484Z,93853.22
2022-11-12T02:00:09.875Z,93848.91
2022-11-12T02:02:40.551Z,93850.63
2022-11-12T02:05:12.672Z,93859.97
2022-11-12T02:07:45.597Z,93852.00
2022-11-12T02:10:15.319Z,93840.03
2022-11-12T02:13:02.789Z,93843.38
2022-11-12T02:15:32.374Z,93848.50
2022-11-12T02:18:01.828Z,93844.22
2022-11-12T02:20:35.910Z,93843.50
2022-11-12T02:23:08.129Z,93836.59
2022-11-12T02:25:38.921Z,93831.44
2022-11-12T02:28:10.781Z,93828.97
2022-11-12T02:30:43.349Z,93834.13
2022-11-12T02:33:12.779Z,93839.31
2022-11-12T02:35:42.418Z,93829.06
2022-11-12T02:38:13.417Z,93834.38
2022-11-12T02:40:42.828Z,93837.97
2022-11-12T02:43:12.261Z,93834.47
2022-11-12T02:45:41.670Z,93837.81
2022-11-12T02:48:24.474Z,93854.41
2022-11-12T02:50:53.825Z,93840.69
2022-11-12T02:53:24.664Z,93832.19
2022-11-12T02:55:54.195Z,93841.13
2022-11-12T02:58:23.916Z,93842.94
2022-11-12T03:00:54.942Z,93843.91
2022-11-12T03:03:24.379Z,93842.16
2022-11-12T03:05:59.419Z,93841.41
2022-11-12T03:08:30.269Z,93845.81
2022-11-12T03:10:59.453Z,93837.25
2022-11-12T03:13:28.709Z,93838.16
2022-11-12T03:16:02.415Z,93848.47
2022-11-12T03:18:31.904Z,93841.44
2022-11-12T03:21:01.270Z,93848.19
2022-11-12T03:23:32.136Z,93863.69
2022-11-12T03:26:04.650Z,93845.59
2022-11-12T03:28:34.449Z,93837.81
2022-11-12T03:31:03.813Z,93854.38
2022-11-12T03:33:33.081Z,93840.47
2022-11-12T03:36:02.514Z,93845.72
2022-11-12T03:38:33.363Z,93852.53
2022-11-12T03:41:02.604Z,93844.69
2022-11-12T03:43:32.029Z,93852.53
2022-11-12T03:46:02.215Z,93856.91
2022-11-12T03:48:31.591Z,93848.28
2022-11-12T03:52:12.410Z,93850.88
2022-11-12T03:54:41.633Z,93857.88
2022-11-12T03:57:11.030Z,93860.41
2022-11-12T03:59:40.526Z,93858.69
2022-11-12T04:02:14.673Z,93852.66
2022-11-12T04:05:01.552Z,93850.91
2022-11-12T04:07:50.025Z,93851.72
2022-11-12T04:10:19.405Z,93860.13
2022-11-12T04:13:06.284Z,93858.38
2022-11-12T04:15:35.820Z,93848.78
2022-11-12T04:18:22.643Z,93852.34
2022-11-12T04:21:09.701Z,93856.63
2022-11-12T04:23:42.299Z,93843.63
2022-11-12T04:26:25.777Z,93849.63
2022-11-12T04:29:12.412Z,93845.34
2022-11-12T04:31:41.687Z,93854.81
2022-11-12T04:34:28.544Z,93853.75
2022-11-12T04:36:58.086Z,93853.69
2022-11-12T04:39:28.950Z,93864.16
2022-11-12T04:42:15.879Z,93868.53
2022-11-12T04:45:02.544Z,93872.13
2022-11-12T04:47:35.265Z,93879.09
2022-11-12T04:50:06.403Z,93882.44
2022-11-12T04:52:35.865Z,93885.78
2022-11-12T04:55:08.011Z,93895.34
2022-11-12T04:57:37.910Z,93893.78
2022-11-12T05:00:09.027Z,93887.72
2022-11-12T05:02:38.360Z,93902.28
2022-11-12T05:05:09.070Z,93894.47
2022-11-12T05:07:38.646Z,93892.09
2022-11-12T05:10:11.178Z,93900.81
2022-11-12T05:12:40.472Z,93900.88
2022-11-12T05:15:12.975Z,93907.31
2022-11-12T05:17:45.086Z,93902.56
2022-11-12T05:20:16.108Z,93899.25
2022-11-12T05:22:59.083Z,93907.84
2022-11-12T05:25:35.870Z,93896.63
2022-11-12T05:28:06.992Z,93908.94
2022-11-12T05:30:37.467Z,93909.41
2022-11-12T05:33:07.032Z,93908.66
2022-11-12T05:35:36.349Z,93907.91
2022-11-12T05:38:05.621Z,93911.66
2022-11-12T05:40:36.451Z,93907.63
2022-11-12T05:43:05.782Z,93910.34
2022-11-12T05:45:35.026Z,93912.13
2022-11-12T05:48:04.404Z,93906.97
2022-11-12T05:50:45.208Z,93913.19
2022-11-12T05:53:23.407Z,93918.53
2022-11-12T05:55:54.233Z,93919.28
2022-11-12T05:58:24.069Z,93934.66
2022-11-12T06:00:54.028Z,93929.72
2022-11-12T06:03:23.285Z,93940.09
2022-11-12T06:05:53.020Z,93943.66
2022-11-12T06:08:22.746Z,93951.50
2022-11-12T06:10:54.817Z,93953.19
2022-11-12T06:13:26.237Z,93953.25
2022-11-12T06:15:56.588Z,93956.59
2022-11-12T06:18:26.785Z,93955.75
2022-11-12T06:21:10.115Z,93967.03
2022-11-12T06:23:39.677Z,93963.53
2022-11-12T06:26:10.471Z,93974.75
2022-11-12T06:28:39.901Z,93972.88
2022-11-12T06:31:09.515Z,93973.97
2022-11-12T06:33:38.863Z,93982.81
2022-11-12T06:36:09.530Z,93982.91
2022-11-12T06:38:41.317Z,93989.75
2022-11-12T06:41:14.143Z,93987.13
2022-11-12T06:43:43.964Z,93985.41
2022-11-12T06:46:16.460Z,93989.03
2022-11-12T06:52:16.407Z,93975.31
2022-11-12T06:54:46.356Z,93980.59
2022-11-12T06:57:15.659Z,93983.19
2022-11-12T06:59:44.968Z,93977.16
2022-11-12T07:02:14.969Z,93971.91
2022-11-12T07:04:44.241Z,93976.25
2022-11-12T07:07:15.170Z,93984.03
2022-11-12T07:09:44.743Z,93976.50
2022-11-12T07:12:14.123Z,93961.78
2022-11-12T07:14:43.608Z,93970.41
2022-11-12T07:17:14.358Z,93966.06
2022-11-12T07:19:43.812Z,93971.13
2022-11-12T07:22:14.553Z,93970.31
2022-11-12T07:24:43.946Z,93967.72
2022-11-12T07:27:13.402Z,93972.09
2022-11-12T07:29:48.128Z,93972.09
2022-11-12T07:32:17.793Z,93970.41
2022-11-12T07:34:47.136Z,93967.16
2022-11-12T07:37:17.948Z,93965.41
2022-11-12T07:39:47.293Z,93969.81
2022-11-12T07:42:16.571Z,93974.94
2022-11-12T07:44:45.816Z,93983.56
2022-11-12T07:47:15.150Z,93971.50
2022-11-12T07:49:44.402Z,93974.03
2022-11-12T07:52:13.747Z,93984.34
2022-11-12T07:54:44.556Z,93976.56
2022-11-12T07:57:13.975Z,93982.63
2022-11-12T07:59:46.046Z,93979.94
2022-11-12T08:02:15.823Z,93980.84
2022-11-12T08:04:45.192Z,93986.88
2022-11-12T08:07:14.690Z,93974.81
2022-11-12T08:09:45.472Z,93980.78
2022-11-12T08:12:14.842Z,93983.25
2022-11-12T08:14:44.136Z,93981.56
2022-11-12T08:17:13.682Z,93969.50
2022-11-12T08:19:43.060Z,93981.50
2022-11-12T08:22:12.477Z,93983.06
2022-11-12T08:24:41.808Z,93992.47
2022-11-12T08:27:12.542Z,93979.50
2022-11-12T08:29:41.842Z,93988.09
2022-11-12T08:32:11.160Z,93988.81
2022-11-12T08:34:41.565Z,93991.44
2022-11-12T08:37:10.925Z,93987.97
2022-11-12T08:39:40.457Z,93989.59
2022-11-12T08:42:11.337Z,93987.59
2022-11-12T08:44:40.662Z,93988.34
2022-11-12T08:47:10.030Z,93982.16
2022-11-12T08:49:42.522Z,93979.56
2022-11-12T08:52:14.471Z,93978.53
2022-11-12T08:54:43.913Z,93981.78
2022-11-12T08:57:14.765Z,93980.75
2022-11-12T08:59:44.076Z,93977.09
2022-11-12T09:02:15.190Z,93984.53
2022-11-12T09:04:44.525Z,93976.56
2022-11-12T09:07:43.375Z,93985.03
2022-11-12T09:10:03.390Z,93973.63
2022-11-12T09:12:34.325Z,93995.06
2022-11-12T09:15:35.708Z,93995.78
2022-11-12T09:17:58.018Z,93998.47
2022-11-12T09:20:28.419Z,94004.41
2022-11-12T09:23:02.179Z,94017.41
2022-11-12T09:25:31.898Z,94010.59
2022-11-12T09:28:09.754Z,94007.16
2022-11-12T09:30:43.107Z,94000.97
2022-11-12T09:33:12.549Z,93999.00
2022-11-12T09:35:41.982Z,93993.59
2022-11-12T09:38:11.282Z,93994.31
2022-11-12T09:41:03.259Z,93987.09
2022-11-12T09:43:39.063Z,93977.25
2022-11-12T09:46:28.239Z,93977.69
2022-11-12T09:52:20.813Z,93967.78
2022-11-12T09:55:00.636Z,93962.75
2022-11-12T09:57:30.224Z,93958.88
2022-11-12T09:59:59.873Z,93964.63
2022-11-12T10:02:37.538Z,93967.22
2022-11-12T10:05:23.203Z,93974.06
2022-11-12T10:08:08.097Z,93981.78
2022-11-12T10:10:47.746Z,93976.31
2022-11-12T10:13:32.164Z,93979.47
2022-11-12T10:16:38.803Z,93984.47
2022-11-12T10:19:25.397Z,93986.56
2022-11-12T10:22:04.843Z,93984.88
2022-11-12T10:24:39.718Z,93992.41
2022-11-12T10:27:18.541Z,93979.22
2022-11-12T10:29:57.105Z,93983.56
2022-11-12T10:32:26.608Z,93981.22
2022-11-12T10:34:56.000Z,93977.94
2022-11-12T10:37:34.125Z,93978.00
2022-11-12T10:40:35.585Z,93983.19
2022-11-12T10:43:08.466Z,93986.72
2022-11-12T10:45:38.076Z,93996.06
2022-11-12T10:48:09.875Z,94001.31
2022-11-12T10:50:43.092Z,94004.69
2022-11-12T10:53:14.169Z,94004.53
2022-11-12T10:56:00.765Z,93998.38
2022-11-12T10:58:30.304Z,94005.19
2022-11-12T11:01:05.976Z,94003.28
2022-11-12T11:03:38.388Z,93996.69
2022-11-12T11:06:11.913Z,94000.06
2022-11-12T11:08:45.254Z,93992.75
2022-11-12T11:11:24.468Z,93990.16
2022-11-12T11:13:56.099Z,93984.03
2022-11-12T11:16:29.030Z,93986.22
2022-11-12T11:19:01.018Z,93984.75
2022-11-12T11:22:03.179Z,93986.72
2022-11-12T11:24:44.477Z,93983.28
2022-11-12T11:27:33.963Z,93999.91
2022-11-12T11:30:11.586Z,93994.91
2022-11-12T11:33:11.398Z,93999.41
2022-11-12T11:36:07.066Z,93986.53
2022-11-12T11:38:59.878Z,93997.06
2022-11-12T11:41:52.406Z,93990.97
2022-11-12T11:44:34.955Z,93986.53
2022-11-12T11:47:27.749Z,93987.13
2022-11-12T11:50:23.269Z,93976.03
2022-11-12T11:53:07.712Z,93975.88
2022-11-12T11:55:54.524Z,93981.06
2022-11-12T11:58:52.159Z,93983.41
2022-11-12T12:01:35.804Z,93988.47
2022-11-12T12:04:41.855Z,93993.88
2022-11-12T12:07:23.605Z,93997.22
2022-11-12T12:10:07.830Z,93997.31
2022-11-12T12:12:53.849Z,93993.91
2022-11-12T12:15:49.238Z,93994.03
2022-11-12T12:18:33.057Z,93995.56
2022-11-12T12:21:11.356Z,93996.41
2022-11-12T12:23:45.887Z,93991.13
2022-11-12T12:26:20.436Z,93987.81
2022-11-12T12:28:58.037Z,93991.53
2022-11-12T12:31:32.767Z,93986.25
2022-11-12T12:34:08.191Z,93988.94
2022-11-12T12:36:43.611Z,93987.03
2022-11-12T12:39:19.713Z,93986.91
2022-11-12T12:41:57.033Z,93980.72
2022-11-12T12:44:48.428Z,93987.56
2022-11-12T12:47:20.614Z,93978.72
2022-11-12T12:52:15.937Z,93973.44
2022-11-12T12:54:59.389Z,93982.03
2022-11-12T12:57:35.088Z,93975.19
2022-11-12T13:00:31.210Z,93975.19
2022-11-12T13:03:00.887Z,93960.53
2022-11-12T13:05:36.073Z,93952.72
2022-11-12T13:08:12.339Z,93944.94
2022-11-12T13:10:53.850Z,93932.88
2022-11-12T13:13:32.469Z,93930.28
2022-11-12T13:16:04.139Z,93923.38
2022-11-12T13:19:02.501Z,93916.56
2022-11-12T13:21:32.562Z,93919.22
2022-11-12T13:24:11.234Z,93912.09
2022-11-12T13:27:05.544Z,93914.53
2022-11-12T13:29:45.960Z,93896.28
2022-11-12T13:32:37.092Z,93893.59
2022-11-12T13:35:31.673Z,93903.88
2022-11-12T13:38:13.264Z,93914.94
2022-11-12T13:40:48.087Z,93917.63
2022-11-12T13:43:34.753Z,93902.88
2022-11-12T13:46:31.010Z,93901.94
2022-11-12T13:49:03.900Z,93901.25
2022-11-12T13:51:42.056Z,93887.13
2022-11-12T13:54:36.149Z,93875.59
2022-11-12T13:57:34.513Z,93887.53
2022-11-12T14:00:28.214Z,93888.13
2022-11-12T14:03:01.601Z,93893.34
2022-11-12T14:05:34.178Z,93910.88
2022-11-12T14:08:37.887Z,93916.44
2022-11-12T14:11:35.791Z,93920.28
2022-11-12T14:14:20.940Z,93935.94
2022-11-12T14:17:05.770Z,93942.69
2022-11-12T14:20:15.732Z,93947.47
2022-11-12T14:22:46.813Z,93955.13
2022-11-12T14:25:20.614Z,93958.75
2022-11-12T14:27:51.247Z,93969.13
2022-11-12T14:30:26.106Z,93969.88
2022-11-12T14:33:01.380Z,93967.34
2022-11-12T14:35:37.457Z,93977.81
2022-11-12T14:38:18.592Z,93987.44
2022-11-12T14:40:53.037Z,93991.00
2022-11-12T14:43:33.656Z,93990.28
2022-11-12T14:46:06.929Z,93993.09
2022-11-12T14:48:58.884Z,93998.50
2022-11-12T14:51:33.070Z,94002.72
2022-11-12T14:54:08.207Z,94003.66
2022-11-12T14:56:42.832Z,94006.09
2022-11-12T14:59:15.593Z,94007.81
2022-11-12T15:02:29.419Z,94009.59
2022-11-12T15:05:02.141Z,94008.75
2022-11-12T15:07:35.198Z,94013.22
2022-11-12T15:10:33.730Z,94020.13
2022-11-12T15:13:07.198Z,94008.84
2022-11-12T15:15:39.830Z,94008.84
2022-11-12T15:18:19.732Z,94012.28
2022-11-12T15:21:08.998Z,94020.00
2022-11-12T15:23:38.691Z,94025.19
2022-11-12T15:26:24.164Z,94030.41
2022-11-12T15:29:05.094Z,94033.63
2022-11-12T15:31:47.526Z,94021.63
2022-11-12T15:34:35.595Z,94044.19
2022-11-12T15:37:09.464Z,94032.78
2022-11-12T15:39:45.395Z,94037.78
2022-11-12T15:42:19.384Z,94044.53
2022-11-12T15:44:49.738Z,94037.56
2022-11-12T15:47:22.901Z,94043.66
2022-11-12T15:52:12.197Z,94045.38
2022-11-12T15:54:41.627Z,94035.06
2022-11-12T15:57:14.637Z,94037.56
2022-11-12T15:59:44.793Z,94037.66
2022-11-12T16:02:15.493Z,94030.78
2022-11-12T16:04:44.835Z,94036.81
2022-11-12T16:07:15.666Z,94036.72
2022-11-12T16:09:45.277Z,94032.66
2022-11-12T16:12:15.990Z,94025.28
2022-11-12T16:14:45.457Z,94021.31
2022-11-12T16:17:17.371Z,94025.72
2022-11-12T16:19:46.967Z,94034.72
2022-11-12T16:22:17.769Z,94038.34
2022-11-12T16:24:47.771Z,94030.69
2022-11-12T16:27:18.333Z,94034.19
2022-11-12T16:29:47.616Z,94037.75
2022-11-12T16:32:17.189Z,94031.84
2022-11-12T16:34:46.398Z,94034.53
2022-11-12T16:37:17.240Z,94036.28
2022-11-12T16:39:46.535Z,94041.56
2022-11-12T16:42:15.773Z,94038.88
2022-11-12T16:44:45.093Z,94046.66
2022-11-12T16:47:14.389Z,94038.06
2022-11-12T16:49:44.020Z,94037.19
2022-11-12T16:52:13.415Z,94033.78
2022-11-12T16:54:44.389Z,94039.88
2022-11-12T16:57:16.548Z,94038.19
2022-11-12T16:59:46.329Z,94042.56
2022-11-12T17:02:17.350Z,94032.22
2022-11-12T17:04:46.628Z,94045.38
2022-11-12T17:07:16.861Z,94039.28
2022-11-12T17:09:47.732Z,94035.66
2022-11-12T17:12:17.024Z,94042.56
2022-11-12T17:14:46.802Z,94046.03
2022-11-12T17:17:16.235Z,94043.41
2022-11-12T17:19:45.537Z,94039.03
2022-11-12T17:22:15.048Z,94035.59
2022-11-12T17:24:44.512Z,94036.53
2022-11-12T17:27:15.276Z,94037.22
2022-11-12T17:29:44.574Z,94038.13
2022-11-12T17:32:13.920Z,94037.19
2022-11-12T17:34:43.233Z,94044.00
2022-11-12T17:37:12.674Z,94035.97
2022-11-12T17:39:41.973Z,94039.31
2022-11-12T17:42:11.280Z,94040.03
2022-11-12T17:44:42.433Z,94044.28
2022-11-12T17:47:11.811Z,94040.75
2022-11-12T17:49:41.212Z,94041.69
2022-11-12T17:52:10.767Z,94044.19
2022-11-12T17:54:40.048Z,94049.94
2022-11-12T17:57:09.491Z,94047.22
2022-11-12T17:59:38.849Z,94049.00
2022-11-12T18:02:11.777Z,94045.44
2022-11-12T18:04:41.319Z,94052.19
2022-11-12T18:07:10.752Z,94051.13
2022-11-12T18:09:40.154Z,94045.84
2022-11-12T18:12:09.509Z,94052.81
2022-11-12T18:14:38.994Z,94052.75
2022-11-12T18:17:09.754Z,94053.44
2022-11-12T18:19:39.098Z,94051.50
2022-11-12T18:22:08.457Z,94063.72
2022-11-12T18:24:38.134Z,94056.88
2022-11-12T18:27:07.477Z,94050.78
2022-11-12T18:29:37.363Z,94056.47
2022-11-12T18:32:08.442Z,94057.31
2022-11-12T18:34:41.951Z,94056.34
2022-11-12T18:37:11.360Z,94048.34
2022-11-12T18:39:40.808Z,94061.28
2022-11-12T18:42:10.144Z,94065.00
2022-11-12T18:44:39.564Z,94063.34
2022-11-12T18:47:10.621Z,94068.44
2022-11-12T18:52:12.352Z,94073.28
2022-11-12T18:54:41.866Z,94074.13
2022-11-12T18:57:11.400Z,94067.19
2022-11-12T18:59:40.915Z,94065.50
2022-11-12T19:02:12.898Z,94071.53
2022-11-12T19:04:45.362Z,94079.91
2022-11-12T19:07:16.161Z,94075.69
2022-11-12T19:09:45.536Z,94079.25
2022-11-12T19:12:14.990Z,94074.13
2022-11-12T19:14:44.253Z,94076.75
2022-11-12T19:17:13.537Z,94074.06
2022-11-12T19:19:42.907Z,94074.78
2022-11-12T19:22:12.269Z,94076.44
2022-11-12T19:24:43.248Z,94086.09
2022-11-12T19:27:12.521Z,94086.09
2022-11-12T19:29:41.979Z,94087.72
2022-11-12T19:32:11.839Z,94084.19
2022-11-12T19:34:41.212Z,94087.66
2022-11-12T19:37:32.492Z,94092.72
2022-11-12T19:40:01.198Z,94094.19
2022-11-12T19:42:30.467Z,94100.22
2022-11-12T19:44:59.836Z,94096.72
2022-11-12T19:47:29.184Z,94094.06
2022-11-12T19:49:58.614Z,94100.22
2022-11-12T19:52:27.924Z,94102.75
2022-11-12T19:54:57.253Z,94102.75
2022-11-12T19:57:29.376Z,94111.25
2022-11-12T19:59:58.649Z,94101.56
2022-11-12T20:02:29.229Z,94099.81
2022-11-12T20:04:58.576Z,94102.41
2022-11-12T20:07:27.999Z,94106.56
2022-11-12T20:10:00.922Z,94103.84
2022-11-12T20:12:33.235Z,94109.88
2022-11-12T20:15:02.479Z,94105.72
2022-11-12T20:17:34.515Z,94100.81
2022-11-12T20:20:03.857Z,94110.56
2022-11-12T20:22:33.629Z,94119.34
2022-11-12T20:25:02.936Z,94126.94
2022-11-12T20:27:33.830Z,94124.25
2022-11-12T20:30:03.110Z,94113.09
2022-11-12T20:32:32.414Z,94113.16
2022-11-12T20:35:01.767Z,94119.28
2022-11-12T20:37:32.041Z,94114.78
2022-11-12T20:40:01.472Z,94118.72
2022-11-12T20:42:32.635Z,94110.16
2022-11-12T20:45:02.017Z,94113.66
2022-11-12T20:47:31.332Z,94113.72
2022-11-12T20:50:00.688Z,94117.09
2022-11-12T20:52:30.087Z,94108.63
2022-11-12T20:54:59.463Z,94118.16
2022-11-12T20:57:28.973Z,94109.25
2022-11-12T20:59:59.655Z,94111.63
2022-11-12T21:02:29.115Z,94115.38
2022-11-12T21:04:58.538Z,94116.22
2022-11-12T21:07:27.821Z,94112.19
2022-11-12T21:09:57.146Z,94119.22
2022-11-12T21:12:26.454Z,94104.38
2022-11-12T21:14:55.732Z,94116.41
2022-11-12T21:17:26.416Z,94104.72
2022-11-12T21:19:55.796Z,94116.16
2022-11-12T21:22:25.143Z,94115.19
2022-11-12T21:24:54.451Z,94107.91
2022-11-12T21:27:23.809Z,94114.69
2022-11-12T21:29:53.036Z,94112.91
2022-11-12T21:32:22.733Z,94118.09
2022-11-12T21:34:55.786Z,94120.81
2022-11-12T21:37:25.108Z,94119.84
2022-11-12T21:39:54.458Z,94112.06
2022-11-12T21:42:23.807Z,94116.22
2022-11-12T21:44:53.205Z,94117.31
2022-11-12T21:47:22.503Z,94116.66
2022-11-12T21:52:13.130Z,94116.66
2022-11-12T21:54:42.444Z,94104.59
2022-11-12T21:57:16.104Z,94105.22
2022-11-12T21:59:48.179Z,94110.34
2022-11-12T22:02:17.562Z,94111.91
2022-11-12T22:04:46.879Z,94110.16
2022-11-12T22:07:17.737Z,94111.91
2022-11-12T22:09:47.031Z,94110.94
2022-11-12T22:12:16.344Z,94119.78
2022-11-12T22:14:45.593Z,94124.34
2022-11-12T22:17:14.850Z,94130.50
2022-11-12T22:19:44.131Z,94124.34
2022-11-12T22:22:13.470Z,94120.75
2022-11-12T22:24:44.254Z,94124.00
2022-11-12T22:27:13.588Z,94122.97
2022-11-12T22:29:42.926Z,94119.44
2022-11-12T22:32:12.200Z,94129.06
2022-11-12T22:34:43.783Z,94126.44
2022-11-12T22:37:16.337Z,94126.31
2022-11-12T22:39:47.037Z,94130.41
2022-11-12T22:42:16.319Z,94123.31
2022-11-12T22:44:45.584Z,94132.75
2022-11-12T22:47:14.902Z,94129.13
2022-11-12T22:49:44.166Z,94129.28
2022-11-12T22:52:13.488Z,94129.44
2022-11-12T22:54:43.008Z,94126.31
2022-11-12T22:57:13.700Z,94131.88
2022-11-12T22:59:43.017Z,94124.25
2022-11-12T23:02:12.477Z,94123.34
2022-11-12T23:04:41.874Z,94123.22
2022-11-12T23:07:11.259Z,94123.22
2022-11-12T23:09:40.647Z,94123.84
2022-11-12T23:12:10.141Z,94110.09
2022-11-12T23:14:40.966Z,94115.28
2022-11-12T23:17:10.371Z,94110.81
2022-11-12T23:19:39.821Z,94110.59
2022-11-12T23:22:09.926Z,94105.09
2022-11-12T23:24:39.399Z,94113.53
2022-11-12T23:27:08.678Z,94103.91
2022-11-12T23:29:39.417Z,94101.09
2022-11-12T23:32:08.780Z,94098.34
2022-11-12T23:34:38.108Z,94097.44
2022-11-12T23:37:08.688Z,94104.25
2022-11-12T23:39:38.158Z,94093.91
2022-11-12T23:42:07.617Z,94097.31
2022-11-12T23:44:36.931Z,94095.38
2022-11-12T23:47:07.845Z,94103.25
2022-11-12T23:49:37.146Z,94103.25
2022-11-12T23:52:06.771Z,94105.03
2022-11-12T23:54:36.199Z,94099.81
2022-11-12T23:57:05.600Z,94104.19
2022-11-12T23:59:35.001Z,94105.78
